createdAt,value
2022-08-03T00:00:30.146Z,17.33
2022-08-03T00:03:12.240Z,17.30
2022-08-03T00:05:39.573Z,17.28
2022-08-03T00:08:06.810Z,17.25
2022-08-03T00:10:34.136Z,17.23
2022-08-03T00:13:01.727Z,17.18
2022-08-03T00:15:29.063Z,17.16
2022-08-03T00:17:56.288Z,17.13
2022-08-03T00:20:23.752Z,17.08
2022-08-03T00:22:51.504Z,17.05
2022-08-03T00:25:20.057Z,17.00
2022-08-03T00:27:48.338Z,16.97
2022-08-03T00:30:17.655Z,16.95
2022-08-03T00:32:47.216Z,16.95
2022-08-03T00:35:35.157Z,16.94
2022-08-03T00:38:01.981Z,16.89
2022-08-03T00:40:37.554Z,16.85
2022-08-03T00:43:07.342Z,16.88
2022-08-03T00:45:38.300Z,16.84
2022-08-03T00:48:29.458Z,16.80
2022-08-03T00:50:58.817Z,16.73
2022-08-03T00:53:27.772Z,16.71
2022-08-03T00:55:55.114Z,16.70
2022-08-03T00:58:24.054Z,16.67
2022-08-03T01:00:51.570Z,16.68
2022-08-03T01:03:19.106Z,16.65
2022-08-03T01:05:52.498Z,16.62
2022-08-03T01:08:59.422Z,16.58
2022-08-03T01:12:01.275Z,16.50
2022-08-03T01:14:46.048Z,16.50
2022-08-03T01:18:03.476Z,16.50
2022-08-03T01:20:36.992Z,16.47
2022-08-03T01:23:28.976Z,16.47
2022-08-03T01:26:52.880Z,16.42
2022-08-03T01:30:01.103Z,16.37
2022-08-03T01:33:01.016Z,16.35
2022-08-03T01:36:07.644Z,16.37
2022-08-03T01:38:42.303Z,16.32
2022-08-03T01:41:18.886Z,16.32
2022-08-03T01:44:26.429Z,16.30
2022-08-03T01:46:40.662Z,16.27
2022-08-03T01:49:16.940Z,16.25
2022-08-03T01:52:03.410Z,16.24
2022-08-03T01:54:40.719Z,16.17
2022-08-03T01:57:09.989Z,16.14
2022-08-03T01:59:40.197Z,16.14
2022-08-03T02:02:32.171Z,16.14
2022-08-03T02:05:00.846Z,16.10
2022-08-03T02:07:32.125Z,16.08
2022-08-03T02:10:01.147Z,16.06
2022-08-03T02:12:31.744Z,16.05
2022-08-03T02:15:01.505Z,16.04
2022-08-03T02:17:39.564Z,16.00
2022-08-03T02:20:11.848Z,15.98
2022-08-03T02:22:44.774Z,15.95
2022-08-03T02:25:15.446Z,15.96
2022-08-03T02:28:27.430Z,15.93
2022-08-03T02:30:57.200Z,15.90
2022-08-03T02:33:49.385Z,15.84
2022-08-03T02:36:31.365Z,15.84
2022-08-03T02:39:01.747Z,15.83
2022-08-03T02:41:38.320Z,15.79
2022-08-03T02:44:10.978Z,15.76
2022-08-03T02:46:44.102Z,15.73
2022-08-03T02:49:50.054Z,15.72
2022-08-03T02:52:04.887Z,15.71
2022-08-03T02:54:34.930Z,15.69
2022-08-03T02:57:03.337Z,15.66
2022-08-03T02:59:32.423Z,15.64
2022-08-03T03:02:01.963Z,15.64
2022-08-03T03:04:33.045Z,15.63
2022-08-03T03:07:01.949Z,15.60
2022-08-03T03:09:40.372Z,15.60
2022-08-03T03:12:12.638Z,15.60
2022-08-03T03:14:40.775Z,15.59
2022-08-03T03:17:12.005Z,15.51
2022-08-03T03:19:41.461Z,15.47
2022-08-03T03:22:10.168Z,15.44
2022-08-03T03:24:41.326Z,15.42
2022-08-03T03:27:09.171Z,15.44
2022-08-03T03:29:39.388Z,15.47
2022-08-03T03:32:09.113Z,15.45
2022-08-03T03:34:37.614Z,15.44
2022-08-03T03:37:05.206Z,15.42
2022-08-03T03:39:32.606Z,15.38
2022-08-03T03:42:01.790Z,15.39
2022-08-03T03:44:30.501Z,15.37
2022-08-03T03:47:32.353Z,15.38
2022-08-03T03:50:03.695Z,15.35
2022-08-03T03:52:32.457Z,15.35
2022-08-03T03:55:01.170Z,15.34
2022-08-03T03:57:34.102Z,15.31
2022-08-03T04:00:01.408Z,15.29
2022-08-03T04:02:28.687Z,15.28
2022-08-03T04:04:55.948Z,15.24
2022-08-03T04:07:34.784Z,15.21
2022-08-03T04:10:14.181Z,15.21
2022-08-03T04:12:50.246Z,15.16
2022-08-03T04:15:22.924Z,15.13
2022-08-03T04:17:56.083Z,15.09
2022-08-03T04:20:26.436Z,15.11
2022-08-03T04:22:58.294Z,15.13
2022-08-03T04:25:31.090Z,15.10
2022-08-03T04:28:08.244Z,15.08
2022-08-03T04:30:53.700Z,15.09
2022-08-03T04:33:22.846Z,15.07
2022-08-03T04:36:01.860Z,15.06
2022-08-03T04:38:40.471Z,15.02
2022-08-03T04:41:09.276Z,14.98
2022-08-03T04:43:39.373Z,15.01
2022-08-03T04:46:08.741Z,15.02
2022-08-03T04:48:36.246Z,15.02
2022-08-03T04:51:03.737Z,15.02
2022-08-03T04:53:31.486Z,15.05
2022-08-03T04:56:06.105Z,15.08
2022-08-03T04:58:33.615Z,15.09
2022-08-03T05:01:01.216Z,15.09
2022-08-03T05:03:28.372Z,15.08
2022-08-03T05:06:02.012Z,15.08
2022-08-03T05:08:46.159Z,15.07
2022-08-03T05:11:26.727Z,15.08
2022-08-03T05:13:54.037Z,15.04
2022-08-03T05:16:21.784Z,15.08
2022-08-03T05:18:49.050Z,15.11
2022-08-03T05:21:16.441Z,15.12
2022-08-03T05:23:45.081Z,15.11
2022-08-03T05:26:12.517Z,15.13
2022-08-03T05:28:40.178Z,15.13
2022-08-03T05:31:19.423Z,15.13
2022-08-03T05:33:46.617Z,15.17
2022-08-03T05:36:13.949Z,15.24
2022-08-03T05:38:41.208Z,15.26
2022-08-03T05:41:20.940Z,15.31
2022-08-03T05:43:54.382Z,15.34
2022-08-03T05:46:23.292Z,15.36
2022-08-03T05:48:50.769Z,15.42
2022-08-03T05:51:18.325Z,15.47
2022-08-03T05:53:46.002Z,15.53
2022-08-03T05:56:16.042Z,15.61
2022-08-03T05:58:46.430Z,15.70
2022-08-03T06:01:14.250Z,15.80
2022-08-03T06:03:41.613Z,15.90
2022-08-03T06:06:09.062Z,16.00
2022-08-03T06:08:36.669Z,16.11
2022-08-03T06:11:05.010Z,16.23
2022-08-03T06:13:32.237Z,16.30
2022-08-03T06:15:59.546Z,16.39
2022-08-03T06:18:26.814Z,16.50
2022-08-03T06:20:55.026Z,16.59
2022-08-03T06:23:25.306Z,16.67
2022-08-03T06:26:10.144Z,16.77
2022-08-03T06:28:51.563Z,16.88
2022-08-03T06:31:23.211Z,16.98
2022-08-03T06:34:34.182Z,17.07
2022-08-03T06:36:37.971Z,17.18
2022-08-03T06:39:05.868Z,17.28
2022-08-03T06:41:37.598Z,17.36
2022-08-03T06:44:12.841Z,17.46
2022-08-03T06:46:40.395Z,17.57
2022-08-03T06:49:08.211Z,17.66
2022-08-03T06:52:03.602Z,17.75
2022-08-03T06:54:23.049Z,17.86
2022-08-03T06:56:50.483Z,17.96
2022-08-03T07:00:08.445Z,18.04
2022-08-03T07:02:05.555Z,18.14
2022-08-03T07:04:32.730Z,18.22
2022-08-03T07:06:59.984Z,18.30
2022-08-03T07:09:27.445Z,18.39
2022-08-03T07:11:55.252Z,18.47
2022-08-03T07:14:22.770Z,18.57
2022-08-03T07:16:50.129Z,18.65
2022-08-03T07:19:17.381Z,18.69
2022-08-03T07:21:44.577Z,18.80
2022-08-03T07:24:11.985Z,18.86
2022-08-03T07:26:39.191Z,18.95
2022-08-03T07:29:14.739Z,19.00
2022-08-03T07:31:43.034Z,19.08
2022-08-03T07:34:10.252Z,19.14
2022-08-03T07:36:37.950Z,19.21
2022-08-03T07:39:14.657Z,19.30
2022-08-03T07:41:46.158Z,19.35
2022-08-03T07:44:13.834Z,19.41
2022-08-03T07:46:41.122Z,19.48
2022-08-03T07:49:09.216Z,19.54
2022-08-03T07:51:36.646Z,19.63
2022-08-03T07:54:04.328Z,19.71
2022-08-03T07:56:32.160Z,19.78
2022-08-03T07:58:59.736Z,19.87
2022-08-03T08:01:27.001Z,19.91
2022-08-03T08:03:54.735Z,20.02
2022-08-03T08:06:22.500Z,20.11
2022-08-03T08:08:49.706Z,20.19
2022-08-03T08:11:17.291Z,20.27
2022-08-03T08:13:44.477Z,20.35
2022-08-03T08:16:11.646Z,20.44
2022-08-03T08:18:38.869Z,20.51
2022-08-03T08:21:07.524Z,20.60
2022-08-03T08:23:43.201Z,20.69
2022-08-03T08:26:11.684Z,20.76
2022-08-03T08:28:39.532Z,20.84
2022-08-03T08:31:07.144Z,20.91
2022-08-03T08:34:02.211Z,20.98
2022-08-03T08:36:21.831Z,21.09
2022-08-03T08:38:49.000Z,21.12
2022-08-03T08:41:17.367Z,21.19
2022-08-03T08:43:44.649Z,21.30
2022-08-03T08:46:23.452Z,21.34
2022-08-03T08:48:53.838Z,21.44
2022-08-03T08:51:30.544Z,21.52
2022-08-03T08:54:21.639Z,21.56
2022-08-03T08:56:52.465Z,21.64
2022-08-03T08:59:21.151Z,21.73
2022-08-03T09:01:48.571Z,21.81
2022-08-03T09:04:16.149Z,21.88
2022-08-03T09:06:53.874Z,21.95
2022-08-03T09:10:12.290Z,22.00
2022-08-03T09:12:39.121Z,22.07
2022-08-03T09:15:28.482Z,22.13
2022-08-03T09:17:57.845Z,22.18
2022-08-03T09:20:27.843Z,22.25
2022-08-03T09:23:24.968Z,22.27
2022-08-03T09:26:00.147Z,22.29
2022-08-03T09:29:01.152Z,22.32
2022-08-03T09:31:38.224Z,22.40
2022-08-03T09:34:13.668Z,22.51
2022-08-03T09:36:43.895Z,22.56
2022-08-03T09:39:16.391Z,22.63
2022-08-03T09:41:47.461Z,22.70
2022-08-03T09:44:24.537Z,22.76
2022-08-03T09:46:56.517Z,22.86
2022-08-03T09:49:25.241Z,22.90
2022-08-03T09:52:32.367Z,22.99
2022-08-03T09:54:43.224Z,23.11
2022-08-03T09:57:26.138Z,23.17
2022-08-03T10:00:08.296Z,23.25
2022-08-03T10:02:37.044Z,23.34
2022-08-03T10:05:25.673Z,23.40
2022-08-03T10:07:52.895Z,23.46
2022-08-03T10:10:32.075Z,23.58
2022-08-03T10:13:01.033Z,23.61
2022-08-03T10:16:23.346Z,23.66
2022-08-03T10:18:15.847Z,23.74
2022-08-03T10:21:10.557Z,23.83
2022-08-03T10:23:41.319Z,23.90
2022-08-03T10:26:13.328Z,24.02
2022-08-03T10:28:53.380Z,24.12
2022-08-03T10:31:24.110Z,24.24
2022-08-03T10:33:58.073Z,24.36
2022-08-03T10:36:30.539Z,24.48
2022-08-03T10:38:58.243Z,24.59
2022-08-03T10:41:32.870Z,24.71
2022-08-03T10:44:14.795Z,24.86
2022-08-03T10:46:45.150Z,24.96
2022-08-03T10:49:20.693Z,25.08
2022-08-03T10:52:13.207Z,25.20
2022-08-03T10:54:52.469Z,25.38
2022-08-03T10:57:42.945Z,25.57
2022-08-03T11:00:11.966Z,25.67
2022-08-03T11:03:17.787Z,25.84
2022-08-03T11:05:49.472Z,25.91
2022-08-03T11:08:31.049Z,26.03
2022-08-03T11:11:21.253Z,26.20
2022-08-03T11:14:11.221Z,26.34
2022-08-03T11:16:49.004Z,26.50
2022-08-03T11:19:23.779Z,26.65
2022-08-03T11:22:05.488Z,26.73
2022-08-03T11:24:38.638Z,26.85
2022-08-03T11:27:14.827Z,26.98
2022-08-03T11:30:22.892Z,27.21
2022-08-03T11:32:58.661Z,27.46
2022-08-03T11:35:30.362Z,27.58
2022-08-03T11:38:01.975Z,27.76
2022-08-03T11:40:41.331Z,27.83
2022-08-03T11:43:32.071Z,27.93
2022-08-03T11:46:06.029Z,27.98
2022-08-03T11:48:41.313Z,28.08
2022-08-03T11:51:28.572Z,28.21
2022-08-03T11:54:06.903Z,28.43
2022-08-03T11:56:49.160Z,28.59
2022-08-03T11:59:21.689Z,28.71
2022-08-03T12:01:50.807Z,28.79
2022-08-03T12:04:18.289Z,28.96
2022-08-03T12:07:01.644Z,29.13
2022-08-03T12:09:28.884Z,29.29
2022-08-03T12:11:59.367Z,29.36
2022-08-03T12:14:50.917Z,29.32
2022-08-03T12:17:16.752Z,29.31
2022-08-03T12:19:45.834Z,29.35
2022-08-03T12:22:15.679Z,29.44
2022-08-03T12:24:46.826Z,29.28
2022-08-03T12:27:25.315Z,29.15
2022-08-03T12:29:59.295Z,29.33
2022-08-03T12:32:31.325Z,29.41
2022-08-03T12:35:00.064Z,29.38
2022-08-03T12:37:28.049Z,29.37
2022-08-03T12:40:02.854Z,29.51
2022-08-03T12:42:35.674Z,29.71
2022-08-03T12:45:29.674Z,29.89
2022-08-03T12:48:02.440Z,30.07
2022-08-03T12:50:36.800Z,30.20
2022-08-03T12:53:08.869Z,30.15
2022-08-03T12:56:04.629Z,30.22
2022-08-03T12:58:36.153Z,30.34
2022-08-03T13:01:09.632Z,30.48
2022-08-03T13:03:49.921Z,30.64
2022-08-03T13:06:26.049Z,30.76
2022-08-03T13:09:08.297Z,30.87
2022-08-03T13:11:58.944Z,30.96
2022-08-03T13:14:23.622Z,31.07
2022-08-03T13:16:52.138Z,31.16
2022-08-03T13:19:19.358Z,31.25
2022-08-03T13:21:53.477Z,31.41
2022-08-03T13:24:32.593Z,31.46
2022-08-03T13:27:21.934Z,31.52
2022-08-03T13:29:48.517Z,31.46
2022-08-03T13:32:15.770Z,31.46
2022-08-03T13:34:43.211Z,31.52
2022-08-03T13:37:10.572Z,31.59
2022-08-03T13:39:57.244Z,31.73
2022-08-03T13:42:29.178Z,31.84
2022-08-03T13:44:56.590Z,31.91
2022-08-03T13:47:23.927Z,31.95
2022-08-03T13:49:54.366Z,32.04
2022-08-03T13:52:34.071Z,32.13
2022-08-03T13:55:06.757Z,32.30
2022-08-03T13:58:04.488Z,32.47
2022-08-03T14:00:28.232Z,32.65
2022-08-03T14:03:07.958Z,32.77
2022-08-03T14:05:39.829Z,32.93
2022-08-03T14:08:08.260Z,33.01
2022-08-03T14:10:39.502Z,33.15
2022-08-03T14:13:07.840Z,33.23
2022-08-03T14:15:38.655Z,33.24
2022-08-03T14:18:11.991Z,33.34
2022-08-03T14:20:47.792Z,33.40
2022-08-03T14:23:20.946Z,33.56
2022-08-03T14:25:51.812Z,33.77
2022-08-03T14:28:23.320Z,33.98
2022-08-03T14:30:55.476Z,34.09
2022-08-03T14:33:23.364Z,34.12
2022-08-03T14:35:52.124Z,34.02
2022-08-03T14:38:19.938Z,34.02
2022-08-03T14:40:48.408Z,34.09
2022-08-03T14:43:17.093Z,34.24
2022-08-03T14:45:52.307Z,34.34
2022-08-03T14:50:38.284Z,34.40
2022-08-03T14:51:55.094Z,34.42
2022-08-03T14:54:23.660Z,34.43
2022-08-03T14:56:51.275Z,34.41
2022-08-03T15:00:21.633Z,34.43
2022-08-03T15:06:51.281Z,34.43
2022-08-03T15:09:23.816Z,34.50
2022-08-03T15:11:51.414Z,34.54
2022-08-03T15:14:28.275Z,34.60
2022-08-03T15:17:00.586Z,34.63
2022-08-03T15:20:03.360Z,34.62
2022-08-03T15:22:15.007Z,34.59
2022-08-03T15:24:49.494Z,34.60
2022-08-03T15:27:16.723Z,34.53
2022-08-03T15:30:06.832Z,34.54
2022-08-03T15:32:31.002Z,34.56
2022-08-03T15:34:58.116Z,34.57
2022-08-03T15:37:25.938Z,34.57
2022-08-03T15:40:06.659Z,34.48
2022-08-03T15:42:34.232Z,34.41
2022-08-03T15:45:01.556Z,34.27
2022-08-03T15:47:28.900Z,34.00
2022-08-03T15:49:56.290Z,33.82
2022-08-03T15:52:23.838Z,33.78
2022-08-03T15:55:01.603Z,33.67
2022-08-03T15:57:28.812Z,33.51
2022-08-03T15:59:56.001Z,33.18
2022-08-03T16:02:23.260Z,32.83
2022-08-03T16:04:50.600Z,32.49
2022-08-03T16:07:18.076Z,32.18
2022-08-03T16:09:45.398Z,32.01
2022-08-03T16:12:16.186Z,31.91
2022-08-03T16:14:52.326Z,31.93
2022-08-03T16:17:23.078Z,31.87
2022-08-03T16:19:54.722Z,31.88
2022-08-03T16:22:23.916Z,31.91
2022-08-03T16:24:53.449Z,31.95
2022-08-03T16:27:37.465Z,31.88
2022-08-03T16:30:12.575Z,31.81
2022-08-03T16:32:39.762Z,31.72
2022-08-03T16:35:08.406Z,31.61
2022-08-03T16:37:38.721Z,31.48
2022-08-03T16:40:19.316Z,31.32
2022-08-03T16:42:47.382Z,31.09
2022-08-03T16:45:15.029Z,30.90
2022-08-03T16:48:05.211Z,30.72
2022-08-03T16:50:35.282Z,30.51
2022-08-03T16:53:06.355Z,30.31
2022-08-03T16:59:36.581Z,29.81
2022-08-03T17:02:09.903Z,29.64
2022-08-03T17:04:40.406Z,29.50
2022-08-03T17:07:19.322Z,29.39
2022-08-03T17:09:48.757Z,29.23
2022-08-03T17:12:18.009Z,29.13
2022-08-03T17:14:45.473Z,29.02
2022-08-03T17:17:28.054Z,28.88
2022-08-03T17:19:58.748Z,28.75
2022-08-03T17:22:37.041Z,28.63
2022-08-03T17:25:09.785Z,28.52
2022-08-03T17:28:51.174Z,28.44
2022-08-03T17:30:40.765Z,28.34
2022-08-03T17:33:18.767Z,28.26
2022-08-03T17:35:47.988Z,28.16
2022-08-03T17:38:22.450Z,28.05
2022-08-03T17:40:52.223Z,27.98
2022-08-03T17:44:13.708Z,27.93
2022-08-03T17:46:10.943Z,27.85
2022-08-03T17:48:42.662Z,27.77
2022-08-03T17:51:33.602Z,27.68
2022-08-03T17:54:20.080Z,27.60
2022-08-03T17:57:21.826Z,27.51
2022-08-03T18:00:14.598Z,27.41
2022-08-03T18:03:15.649Z,27.34
2022-08-03T18:06:12.866Z,27.24
2022-08-03T18:08:58.182Z,27.19
2022-08-03T18:11:35.521Z,27.16
2022-08-03T18:14:32.283Z,27.06
2022-08-03T18:17:05.906Z,27.01
2022-08-03T18:22:27.925Z,26.87
2022-08-03T18:25:00.326Z,26.80
2022-08-03T18:27:45.620Z,26.71
2022-08-03T18:30:15.393Z,26.63
2022-08-03T18:32:44.297Z,26.58
2022-08-03T18:35:53.832Z,26.49
2022-08-03T18:38:18.793Z,26.39
2022-08-03T18:40:48.614Z,26.34
2022-08-03T18:43:16.540Z,26.27
2022-08-03T18:45:57.794Z,26.20
2022-08-03T18:48:48.572Z,26.12
2022-08-03T18:51:28.788Z,26.04
2022-08-03T18:54:58.195Z,25.93
2022-08-03T18:57:22.368Z,25.83
2022-08-03T19:00:12.420Z,25.78
2022-08-03T19:02:59.576Z,25.70
2022-08-03T19:05:53.709Z,25.67
2022-08-03T19:08:41.223Z,25.60
2022-08-03T19:11:15.397Z,25.55
2022-08-03T19:13:50.948Z,25.45
2022-08-03T19:16:31.117Z,25.38
2022-08-03T19:19:00.650Z,25.31
2022-08-03T19:21:33.385Z,25.29
2022-08-03T19:24:07.900Z,25.24
2022-08-03T19:26:39.001Z,25.20
2022-08-03T19:29:10.787Z,25.18
2022-08-03T19:31:58.882Z,25.12
2022-08-03T19:34:30.270Z,25.07
2022-08-03T19:36:59.100Z,25.03
2022-08-03T19:39:27.870Z,25.00
2022-08-03T19:42:18.462Z,24.98
2022-08-03T19:44:56.459Z,24.92
2022-08-03T19:47:36.528Z,24.86
2022-08-03T19:50:13.784Z,24.84
2022-08-03T19:52:47.029Z,24.79
2022-08-03T19:55:18.235Z,24.77
2022-08-03T19:57:53.645Z,24.74
2022-08-03T20:00:26.561Z,24.67
2022-08-03T20:02:58.471Z,24.63
2022-08-03T20:05:27.200Z,24.57
2022-08-03T20:08:00.217Z,24.49
2022-08-03T20:10:31.457Z,24.46
2022-08-03T20:12:59.787Z,24.40
2022-08-03T20:15:31.610Z,24.32
2022-08-03T20:18:00.100Z,24.26
2022-08-03T20:20:37.294Z,24.16
2022-08-03T20:23:16.284Z,24.10
2022-08-03T20:25:59.010Z,24.04
2022-08-03T20:28:32.883Z,23.98
2022-08-03T20:31:01.943Z,23.90
2022-08-03T20:33:46.633Z,23.85
2022-08-03T20:36:18.831Z,23.78
2022-08-03T20:38:48.250Z,23.73
2022-08-03T20:41:17.601Z,23.72
2022-08-03T20:43:46.116Z,23.68
2022-08-03T20:46:29.504Z,23.62
2022-08-03T20:51:53.571Z,23.47
2022-08-03T20:54:31.242Z,23.44
2022-08-03T20:57:04.362Z,23.38
2022-08-03T20:59:50.582Z,23.29
2022-08-03T21:02:29.545Z,23.21
2022-08-03T21:05:08.622Z,23.16
2022-08-03T21:08:04.836Z,23.09
2022-08-03T21:10:39.430Z,23.01
2022-08-03T21:13:08.186Z,26.94
2022-08-03T21:13:13.764Z,23.53
2022-08-03T21:13:45.937Z,22.94
2022-08-03T21:16:15.367Z,22.90
2022-08-03T21:18:48.986Z,22.88
2022-08-03T21:21:22.488Z,22.85
2022-08-03T21:23:54.953Z,22.80
2022-08-03T21:26:25.619Z,22.77
2022-08-03T21:29:01.812Z,22.74
2022-08-03T21:31:29.214Z,22.76
2022-08-03T21:34:00.777Z,22.75
2022-08-03T21:36:30.955Z,22.70
2022-08-03T21:39:00.274Z,22.67
2022-08-03T21:41:32.018Z,22.61
2022-08-03T21:44:01.734Z,22.54
2022-08-03T21:46:35.402Z,22.46
2022-08-03T21:50:05.316Z,22.41
2022-08-03T21:51:59.046Z,22.34
2022-08-03T21:54:42.744Z,22.27
2022-08-03T21:57:20.380Z,22.21
2022-08-03T22:00:27.385Z,22.16
2022-08-03T22:02:59.646Z,22.10
2022-08-03T22:05:44.277Z,22.07
2022-08-03T22:08:13.900Z,22.05
2022-08-03T22:10:44.593Z,22.01
2022-08-03T22:13:23.337Z,21.98
2022-08-03T22:16:06.473Z,21.92
2022-08-03T22:18:41.320Z,21.87
2022-08-03T22:21:12.439Z,21.83
2022-08-03T22:23:44.957Z,21.76
2022-08-03T22:26:32.275Z,21.72
2022-08-03T22:29:07.372Z,21.68
2022-08-03T22:31:59.209Z,21.64
2022-08-03T22:34:28.473Z,21.58
2022-08-03T22:37:02.752Z,21.52
2022-08-03T22:39:31.082Z,21.50
2022-08-03T22:42:05.319Z,21.47
2022-08-03T22:44:35.250Z,21.40
2022-08-03T22:47:04.877Z,21.35
2022-08-03T22:49:35.066Z,21.30
2022-08-03T22:52:03.073Z,21.27
2022-08-03T22:54:32.307Z,21.26
2022-08-03T22:57:00.294Z,21.24
2022-08-03T22:59:41.330Z,21.18
2022-08-03T23:02:20.885Z,21.15
2022-08-03T23:05:03.531Z,21.07
2022-08-03T23:07:34.377Z,21.01
2022-08-03T23:10:05.834Z,20.98
2022-08-03T23:12:37.562Z,20.94
2022-08-03T23:15:10.484Z,20.90
2022-08-03T23:18:00.215Z,20.84
2022-08-03T23:20:29.502Z,20.79
2022-08-03T23:22:59.024Z,20.76
2022-08-03T23:25:27.195Z,20.71
2022-08-03T23:28:05.546Z,20.63
2022-08-03T23:30:37.406Z,20.58
2022-08-03T23:33:06.653Z,20.53
2022-08-03T23:36:20.046Z,20.51
2022-08-03T23:38:30.323Z,20.44
2022-08-03T23:41:00.772Z,20.44
2022-08-03T23:43:45.238Z,20.43
2022-08-03T23:46:24.016Z,20.40
2022-08-03T23:48:51.593Z,20.37
2022-08-03T23:51:44.835Z,20.33
2022-08-03T23:54:32.806Z,20.26
2022-08-03T23:57:31.820Z,20.18
